sensor_id;sensor_type;location;lat;lon;timestamp;P1;durP1;ratioP1;P2;durP2;ratioP2
9106;SDS011;4589;48.690;8.952;2022-12-07T00:01:07;12.30;;;7.60;;
9106;SDS011;4589;48.690;8.952;2022-12-07T00:03:37;13.87;;;8.50;;
9106;SDS011;4589;48.690;8.952;2022-12-07T00:06:04;12.93;;;7.77;;
9106;SDS011;4589;48.690;8.952;2022-12-07T00:08:32;11.37;;;7.43;;
9106;SDS011;4589;48.690;8.952;2022-12-07T00:11:05;11.70;;;8.43;;
9106;SDS011;4589;48.690;8.952;2022-12-07T00:13:39;12.57;;;7.97;;
9106;SDS011;4589;48.690;8.952;2022-12-07T00:16:06;10.20;;;7.40;;
9106;SDS011;4589;48.690;8.952;2022-12-07T00:18:42;12.43;;;7.83;;
9106;SDS011;4589;48.690;8.952;2022-12-07T00:21:09;10.27;;;7.60;;
9106;SDS011;4589;48.690;8.952;2022-12-07T00:23:40;11.43;;;8.17;;
9106;SDS011;4589;48.690;8.952;2022-12-07T00:26:07;17.03;;;8.70;;
9106;SDS011;4589;48.690;8.952;2022-12-07T00:28:40;13.13;;;7.53;;
9106;SDS011;4589;48.690;8.952;2022-12-07T00:31:10;13.10;;;7.73;;
9106;SDS011;4589;48.690;8.952;2022-12-07T00:33:37;12.80;;;7.67;;
9106;SDS011;4589;48.690;8.952;2022-12-07T00:36:04;12.40;;;8.00;;
9106;SDS011;4589;48.690;8.952;2022-12-07T00:38:33;13.00;;;9.17;;
9106;SDS011;4589;48.690;8.952;2022-12-07T00:41:01;13.70;;;8.67;;
9106;SDS011;4589;48.690;8.952;2022-12-07T00:43:29;10.50;;;8.07;;
9106;SDS011;4589;48.690;8.952;2022-12-07T00:45:54;11.30;;;7.83;;
9106;SDS011;4589;48.690;8.952;2022-12-07T00:48:20;15.10;;;9.10;;
9106;SDS011;4589;48.690;8.952;2022-12-07T00:50:47;14.50;;;8.20;;
9106;SDS011;4589;48.690;8.952;2022-12-07T00:53:13;13.57;;;9.07;;
9106;SDS011;4589;48.690;8.952;2022-12-07T00:55:39;17.13;;;10.43;;
9106;SDS011;4589;48.690;8.952;2022-12-07T00:58:05;15.87;;;10.63;;
9106;SDS011;4589;48.690;8.952;2022-12-07T01:00:31;12.90;;;9.40;;
9106;SDS011;4589;48.690;8.952;2022-12-07T01:02:56;16.57;;;11.80;;
9106;SDS011;4589;48.690;8.952;2022-12-07T01:05:22;17.43;;;11.53;;
9106;SDS011;4589;48.690;8.952;2022-12-07T01:07:48;21.17;;;10.93;;
9106;SDS011;4589;48.690;8.952;2022-12-07T01:10:14;17.43;;;10.70;;
9106;SDS011;4589;48.690;8.952;2022-12-07T01:12:40;16.93;;;10.30;;
9106;SDS011;4589;48.690;8.952;2022-12-07T01:15:06;19.13;;;12.40;;
9106;SDS011;4589;48.690;8.952;2022-12-07T01:17:33;18.80;;;11.47;;
9106;SDS011;4589;48.690;8.952;2022-12-07T01:19:59;16.07;;;10.67;;
9106;SDS011;4589;48.690;8.952;2022-12-07T01:22:25;15.87;;;10.57;;
9106;SDS011;4589;48.690;8.952;2022-12-07T01:24:51;18.33;;;11.67;;
9106;SDS011;4589;48.690;8.952;2022-12-07T01:27:16;18.03;;;11.23;;
9106;SDS011;4589;48.690;8.952;2022-12-07T01:29:42;16.93;;;10.53;;
9106;SDS011;4589;48.690;8.952;2022-12-07T01:32:08;16.03;;;10.10;;
9106;SDS011;4589;48.690;8.952;2022-12-07T01:34:34;15.63;;;10.50;;
9106;SDS011;4589;48.690;8.952;2022-12-07T01:37:00;16.30;;;11.30;;
9106;SDS011;4589;48.690;8.952;2022-12-07T01:39:26;16.03;;;10.20;;
9106;SDS011;4589;48.690;8.952;2022-12-07T01:41:52;16.90;;;10.53;;
9106;SDS011;4589;48.690;8.952;2022-12-07T01:44:19;18.20;;;10.90;;
9106;SDS011;4589;48.690;8.952;2022-12-07T01:46:58;17.80;;;10.90;;
9106;SDS011;4589;48.690;8.952;2022-12-07T01:49:38;16.97;;;10.40;;
9106;SDS011;4589;48.690;8.952;2022-12-07T01:54:44;15.97;;;10.33;;
9106;SDS011;4589;48.690;8.952;2022-12-07T01:57:12;15.70;;;10.00;;
9106;SDS011;4589;48.690;8.952;2022-12-07T01:59:39;19.70;;;10.50;;
9106;SDS011;4589;48.690;8.952;2022-12-07T02:02:08;13.30;;;9.53;;
9106;SDS011;4589;48.690;8.952;2022-12-07T02:04:40;19.10;;;10.07;;
9106;SDS011;4589;48.690;8.952;2022-12-07T02:07:06;16.63;;;10.30;;
9106;SDS011;4589;48.690;8.952;2022-12-07T02:09:32;17.37;;;10.90;;
9106;SDS011;4589;48.690;8.952;2022-12-07T02:11:58;16.30;;;10.30;;
9106;SDS011;4589;48.690;8.952;2022-12-07T02:14:24;19.40;;;10.93;;
9106;SDS011;4589;48.690;8.952;2022-12-07T02:16:57;21.47;;;11.33;;
9106;SDS011;4589;48.690;8.952;2022-12-07T02:25:08;17.30;;;10.60;;
9106;SDS011;4589;48.690;8.952;2022-12-07T02:28:05;14.97;;;8.90;;
9106;SDS011;4589;48.690;8.952;2022-12-07T02:30:52;20.30;;;11.77;;
9106;SDS011;4589;48.690;8.952;2022-12-07T02:36:04;16.20;;;10.23;;
9106;SDS011;4589;48.690;8.952;2022-12-07T02:38:40;19.10;;;10.50;;
9106;SDS011;4589;48.690;8.952;2022-12-07T02:41:13;13.43;;;9.50;;
9106;SDS011;4589;48.690;8.952;2022-12-07T02:43:46;15.20;;;10.30;;
9106;SDS011;4589;48.690;8.952;2022-12-07T02:46:17;15.73;;;10.83;;
9106;SDS011;4589;48.690;8.952;2022-12-07T02:48:49;17.00;;;9.60;;
9106;SDS011;4589;48.690;8.952;2022-12-07T02:51:17;14.53;;;10.13;;
9106;SDS011;4589;48.690;8.952;2022-12-07T02:53:43;16.17;;;10.53;;
9106;SDS011;4589;48.690;8.952;2022-12-07T03:12:43;16.10;;;9.40;;
9106;SDS011;4589;48.690;8.952;2022-12-07T03:15:35;13.80;;;9.47;;
9106;SDS011;4589;48.690;8.952;2022-12-07T03:18:11;14.17;;;9.03;;
9106;SDS011;4589;48.690;8.952;2022-12-07T03:20:40;15.80;;;10.20;;
9106;SDS011;4589;48.690;8.952;2022-12-07T03:23:08;18.43;;;9.57;;
9106;SDS011;4589;48.690;8.952;2022-12-07T03:25:40;15.80;;;10.70;;
9106;SDS011;4589;48.690;8.952;2022-12-07T03:28:10;13.68;;;8.88;;
9106;SDS011;4589;48.690;8.952;2022-12-07T03:33:15;16.53;;;8.90;;
9106;SDS011;4589;48.690;8.952;2022-12-07T03:35:52;16.83;;;9.57;;
9106;SDS011;4589;48.690;8.952;2022-12-07T03:38:27;16.10;;;9.47;;
9106;SDS011;4589;48.690;8.952;2022-12-07T03:41:09;20.90;;;9.23;;
9106;SDS011;4589;48.690;8.952;2022-12-07T03:43:44;16.90;;;9.97;;
9106;SDS011;4589;48.690;8.952;2022-12-07T03:49:13;14.43;;;9.73;;
9106;SDS011;4589;48.690;8.952;2022-12-07T03:57:35;17.10;;;9.23;;
9106;SDS011;4589;48.690;8.952;2022-12-07T04:00:03;15.87;;;9.60;;
9106;SDS011;4589;48.690;8.952;2022-12-07T04:02:30;14.70;;;8.45;;
9106;SDS011;4589;48.690;8.952;2022-12-07T04:04:57;15.40;;;9.83;;
9106;SDS011;4589;48.690;8.952;2022-12-07T04:07:22;11.57;;;7.63;;
9106;SDS011;4589;48.690;8.952;2022-12-07T04:09:48;13.20;;;8.70;;
9106;SDS011;4589;48.690;8.952;2022-12-07T04:12:14;13.10;;;8.60;;
9106;SDS011;4589;48.690;8.952;2022-12-07T04:14:40;13.17;;;8.13;;
9106;SDS011;4589;48.690;8.952;2022-12-07T04:17:05;11.00;;;7.53;;
9106;SDS011;4589;48.690;8.952;2022-12-07T04:19:32;11.33;;;7.13;;
9106;SDS011;4589;48.690;8.952;2022-12-07T04:21:59;12.90;;;8.20;;
9106;SDS011;4589;48.690;8.952;2022-12-07T04:24:26;13.73;;;8.15;;
9106;SDS011;4589;48.690;8.952;2022-12-07T04:26:52;15.27;;;9.80;;
9106;SDS011;4589;48.690;8.952;2022-12-07T04:29:18;19.43;;;9.93;;
9106;SDS011;4589;48.690;8.952;2022-12-07T04:31:44;12.00;;;8.73;;
9106;SDS011;4589;48.690;8.952;2022-12-07T04:34:10;15.40;;;9.50;;
9106;SDS011;4589;48.690;8.952;2022-12-07T04:36:37;16.20;;;8.83;;
9106;SDS011;4589;48.690;8.952;2022-12-07T04:39:03;10.65;;;7.90;;
9106;SDS011;4589;48.690;8.952;2022-12-07T04:41:30;16.30;;;9.82;;
9106;SDS011;4589;48.690;8.952;2022-12-07T04:43:58;18.13;;;10.70;;
9106;SDS011;4589;48.690;8.952;2022-12-07T04:46:26;16.92;;;10.27;;
9106;SDS011;4589;48.690;8.952;2022-12-07T04:48:53;19.63;;;11.52;;
9106;SDS011;4589;48.690;8.952;2022-12-07T04:51:20;18.05;;;10.95;;
9106;SDS011;4589;48.690;8.952;2022-12-07T04:53:47;18.52;;;10.52;;
9106;SDS011;4589;48.690;8.952;2022-12-07T04:56:13;19.33;;;10.83;;
9106;SDS011;4589;48.690;8.952;2022-12-07T04:58:40;17.88;;;12.20;;
9106;SDS011;4589;48.690;8.952;2022-12-07T05:01:06;19.83;;;11.32;;
9106;SDS011;4589;48.690;8.952;2022-12-07T05:03:32;17.00;;;9.27;;
9106;SDS011;4589;48.690;8.952;2022-12-07T05:05:58;13.80;;;8.80;;
9106;SDS011;4589;48.690;8.952;2022-12-07T05:08:24;19.43;;;9.80;;
9106;SDS011;4589;48.690;8.952;2022-12-07T05:10:50;14.27;;;8.87;;
9106;SDS011;4589;48.690;8.952;2022-12-07T05:13:16;14.10;;;9.10;;
9106;SDS011;4589;48.690;8.952;2022-12-07T05:15:42;17.23;;;10.23;;
9106;SDS011;4589;48.690;8.952;2022-12-07T05:18:09;14.68;;;9.27;;
9106;SDS011;4589;48.690;8.952;2022-12-07T05:20:37;15.27;;;9.23;;
9106;SDS011;4589;48.690;8.952;2022-12-07T05:23:03;15.87;;;9.07;;
9106;SDS011;4589;48.690;8.952;2022-12-07T05:25:29;15.20;;;9.30;;
9106;SDS011;4589;48.690;8.952;2022-12-07T05:27:55;17.40;;;9.47;;
9106;SDS011;4589;48.690;8.952;2022-12-07T05:30:21;15.52;;;10.07;;
9106;SDS011;4589;48.690;8.952;2022-12-07T05:32:47;13.45;;;8.77;;
9106;SDS011;4589;48.690;8.952;2022-12-07T05:35:13;15.03;;;9.70;;
9106;SDS011;4589;48.690;8.952;2022-12-07T05:37:39;18.33;;;9.43;;
9106;SDS011;4589;48.690;8.952;2022-12-07T05:40:05;23.07;;;10.37;;
9106;SDS011;4589;48.690;8.952;2022-12-07T05:42:31;18.25;;;9.27;;
9106;SDS011;4589;48.690;8.952;2022-12-07T05:44:56;19.03;;;9.50;;
9106;SDS011;4589;48.690;8.952;2022-12-07T05:47:22;14.20;;;9.70;;
9106;SDS011;4589;48.690;8.952;2022-12-07T05:49:48;17.38;;;10.05;;
9106;SDS011;4589;48.690;8.952;2022-12-07T05:52:14;20.47;;;11.27;;
9106;SDS011;4589;48.690;8.952;2022-12-07T05:54:39;22.83;;;14.03;;
9106;SDS011;4589;48.690;8.952;2022-12-07T05:57:05;14.40;;;8.97;;
9106;SDS011;4589;48.690;8.952;2022-12-07T05:59:31;16.23;;;9.83;;
9106;SDS011;4589;48.690;8.952;2022-12-07T06:02:05;14.18;;;8.18;;
9106;SDS011;4589;48.690;8.952;2022-12-07T06:04:33;11.15;;;7.32;;
9106;SDS011;4589;48.690;8.952;2022-12-07T06:07:01;13.82;;;7.75;;
9106;SDS011;4589;48.690;8.952;2022-12-07T06:09:27;12.50;;;7.47;;
9106;SDS011;4589;48.690;8.952;2022-12-07T06:11:54;13.00;;;7.95;;
9106;SDS011;4589;48.690;8.952;2022-12-07T06:14:38;11.80;;;7.30;;
9106;SDS011;4589;48.690;8.952;2022-12-07T06:17:04;19.83;;;8.55;;
9106;SDS011;4589;48.690;8.952;2022-12-07T06:19:30;9.73;;;7.50;;
9106;SDS011;4589;48.690;8.952;2022-12-07T06:21:56;18.60;;;8.00;;
9106;SDS011;4589;48.690;8.952;2022-12-07T06:24:22;14.35;;;8.40;;
9106;SDS011;4589;48.690;8.952;2022-12-07T06:26:48;10.95;;;7.15;;
9106;SDS011;4589;48.690;8.952;2022-12-07T06:29:14;16.43;;;9.53;;
9106;SDS011;4589;48.690;8.952;2022-12-07T06:31:40;13.63;;;7.93;;
9106;SDS011;4589;48.690;8.952;2022-12-07T06:34:09;15.40;;;8.30;;
9106;SDS011;4589;48.690;8.952;2022-12-07T06:36:36;15.27;;;8.73;;
9106;SDS011;4589;48.690;8.952;2022-12-07T06:39:02;16.17;;;9.07;;
9106;SDS011;4589;48.690;8.952;2022-12-07T06:41:29;13.43;;;8.55;;
9106;SDS011;4589;48.690;8.952;2022-12-07T06:43:55;16.60;;;11.60;;
9106;SDS011;4589;48.690;8.952;2022-12-07T06:46:20;22.60;;;12.70;;
9106;SDS011;4589;48.690;8.952;2022-12-07T06:48:46;24.27;;;12.40;;
9106;SDS011;4589;48.690;8.952;2022-12-07T06:51:12;16.23;;;11.23;;
9106;SDS011;4589;48.690;8.952;2022-12-07T06:53:38;18.30;;;12.60;;
9106;SDS011;4589;48.690;8.952;2022-12-07T06:56:03;26.13;;;12.20;;
9106;SDS011;4589;48.690;8.952;2022-12-07T06:58:30;23.48;;;13.50;;
9106;SDS011;4589;48.690;8.952;2022-12-07T07:00:55;25.03;;;13.90;;
9106;SDS011;4589;48.690;8.952;2022-12-07T07:03:21;24.33;;;12.30;;
9106;SDS011;4589;48.690;8.952;2022-12-07T07:05:47;22.23;;;10.80;;
9106;SDS011;4589;48.690;8.952;2022-12-07T07:08:13;25.05;;;12.23;;
9106;SDS011;4589;48.690;8.952;2022-12-07T07:10:39;24.47;;;12.27;;
9106;SDS011;4589;48.690;8.952;2022-12-07T07:13:05;30.13;;;12.93;;
9106;SDS011;4589;48.690;8.952;2022-12-07T07:15:31;21.30;;;12.63;;
9106;SDS011;4589;48.690;8.952;2022-12-07T07:17:58;26.88;;;12.20;;
9106;SDS011;4589;48.690;8.952;2022-12-07T07:20:24;25.73;;;13.07;;
9106;SDS011;4589;48.690;8.952;2022-12-07T07:22:49;29.50;;;13.57;;
9106;SDS011;4589;48.690;8.952;2022-12-07T07:25:15;24.70;;;13.40;;
9106;SDS011;4589;48.690;8.952;2022-12-07T07:27:41;27.00;;;13.07;;
9106;SDS011;4589;48.690;8.952;2022-12-07T07:30:07;22.00;;;11.13;;
9106;SDS011;4589;48.690;8.952;2022-12-07T07:32:33;25.25;;;13.13;;
9106;SDS011;4589;48.690;8.952;2022-12-07T07:34:59;22.80;;;12.30;;
9106;SDS011;4589;48.690;8.952;2022-12-07T07:37:26;25.25;;;13.10;;
9106;SDS011;4589;48.690;8.952;2022-12-07T07:39:52;20.23;;;11.37;;
9106;SDS011;4589;48.690;8.952;2022-12-07T07:42:18;21.17;;;12.60;;
9106;SDS011;4589;48.690;8.952;2022-12-07T07:44:44;18.37;;;10.13;;
9106;SDS011;4589;48.690;8.952;2022-12-07T07:47:10;19.33;;;11.65;;
9106;SDS011;4589;48.690;8.952;2022-12-07T07:49:36;20.20;;;11.68;;
9106;SDS011;4589;48.690;8.952;2022-12-07T07:52:02;22.27;;;10.77;;
9106;SDS011;4589;48.690;8.952;2022-12-07T07:54:28;24.15;;;12.43;;
9106;SDS011;4589;48.690;8.952;2022-12-07T07:56:54;16.60;;;10.80;;
9106;SDS011;4589;48.690;8.952;2022-12-07T07:59:19;21.00;;;11.97;;
9106;SDS011;4589;48.690;8.952;2022-12-07T08:01:45;19.90;;;12.03;;
9106;SDS011;4589;48.690;8.952;2022-12-07T08:04:11;21.80;;;11.03;;
9106;SDS011;4589;48.690;8.952;2022-12-07T08:06:36;23.33;;;12.27;;
9106;SDS011;4589;48.690;8.952;2022-12-07T08:09:02;18.10;;;12.67;;
9106;SDS011;4589;48.690;8.952;2022-12-07T08:11:30;14.95;;;9.50;;
9106;SDS011;4589;48.690;8.952;2022-12-07T08:13:55;18.17;;;10.90;;
9106;SDS011;4589;48.690;8.952;2022-12-07T08:16:21;22.97;;;10.73;;
9106;SDS011;4589;48.690;8.952;2022-12-07T08:18:47;16.23;;;10.73;;
9106;SDS011;4589;48.690;8.952;2022-12-07T08:21:13;16.53;;;9.33;;
9106;SDS011;4589;48.690;8.952;2022-12-07T08:23:40;23.17;;;10.10;;
9106;SDS011;4589;48.690;8.952;2022-12-07T08:26:07;19.60;;;11.55;;
9106;SDS011;4589;48.690;8.952;2022-12-07T08:28:35;17.52;;;11.18;;
9106;SDS011;4589;48.690;8.952;2022-12-07T08:31:02;14.18;;;9.25;;
9106;SDS011;4589;48.690;8.952;2022-12-07T08:33:30;14.60;;;10.37;;
9106;SDS011;4589;48.690;8.952;2022-12-07T08:36:03;13.50;;;8.63;;
9106;SDS011;4589;48.690;8.952;2022-12-07T08:38:36;11.07;;;7.20;;
9106;SDS011;4589;48.690;8.952;2022-12-07T08:41:03;13.60;;;7.60;;
9106;SDS011;4589;48.690;8.952;2022-12-07T08:43:29;10.52;;;7.45;;
9106;SDS011;4589;48.690;8.952;2022-12-07T08:48:58;14.87;;;8.07;;
9106;SDS011;4589;48.690;8.952;2022-12-07T08:51:29;13.07;;;7.90;;
9106;SDS011;4589;48.690;8.952;2022-12-07T08:53:55;11.03;;;6.57;;
9106;SDS011;4589;48.690;8.952;2022-12-07T08:56:23;11.03;;;7.97;;
9106;SDS011;4589;48.690;8.952;2022-12-07T08:58:49;13.03;;;7.27;;
9106;SDS011;4589;48.690;8.952;2022-12-07T09:01:15;13.33;;;5.13;;
9106;SDS011;4589;48.690;8.952;2022-12-07T09:03:41;8.70;;;5.73;;
9106;SDS011;4589;48.690;8.952;2022-12-07T09:06:06;8.80;;;5.50;;
9106;SDS011;4589;48.690;8.952;2022-12-07T09:08:33;10.40;;;5.57;;
9106;SDS011;4589;48.690;8.952;2022-12-07T09:11:03;5.70;;;4.50;;
9106;SDS011;4589;48.690;8.952;2022-12-07T09:13:29;7.37;;;5.17;;
9106;SDS011;4589;48.690;8.952;2022-12-07T09:15:55;8.20;;;5.70;;
9106;SDS011;4589;48.690;8.952;2022-12-07T09:18:21;7.13;;;5.13;;
9106;SDS011;4589;48.690;8.952;2022-12-07T09:20:47;7.83;;;4.90;;
9106;SDS011;4589;48.690;8.952;2022-12-07T09:23:13;7.43;;;5.40;;
9106;SDS011;4589;48.690;8.952;2022-12-07T09:25:38;7.13;;;4.67;;
9106;SDS011;4589;48.690;8.952;2022-12-07T09:28:04;7.27;;;4.90;;
9106;SDS011;4589;48.690;8.952;2022-12-07T09:30:30;6.23;;;4.70;;
9106;SDS011;4589;48.690;8.952;2022-12-07T09:32:56;7.63;;;5.50;;
9106;SDS011;4589;48.690;8.952;2022-12-07T09:35:25;6.60;;;4.97;;
9106;SDS011;4589;48.690;8.952;2022-12-07T09:37:50;5.90;;;4.50;;
9106;SDS011;4589;48.690;8.952;2022-12-07T09:40:16;7.60;;;5.27;;
9106;SDS011;4589;48.690;8.952;2022-12-07T09:42:45;7.00;;;5.07;;
9106;SDS011;4589;48.690;8.952;2022-12-07T09:45:15;6.90;;;5.10;;
9106;SDS011;4589;48.690;8.952;2022-12-07T09:47:44;7.40;;;4.87;;
9106;SDS011;4589;48.690;8.952;2022-12-07T09:50:14;7.50;;;4.87;;
9106;SDS011;4589;48.690;8.952;2022-12-07T09:52:44;5.20;;;4.57;;
9106;SDS011;4589;48.690;8.952;2022-12-07T09:55:13;9.50;;;4.70;;
9106;SDS011;4589;48.690;8.952;2022-12-07T09:57:41;7.73;;;4.87;;
9106;SDS011;4589;48.690;8.952;2022-12-07T10:00:12;6.10;;;4.90;;
9106;SDS011;4589;48.690;8.952;2022-12-07T10:02:58;7.60;;;4.30;;
9106;SDS011;4589;48.690;8.952;2022-12-07T10:05:30;7.03;;;4.80;;
9106;SDS011;4589;48.690;8.952;2022-12-07T10:07:59;5.50;;;4.30;;
9106;SDS011;4589;48.690;8.952;2022-12-07T10:10:27;5.57;;;3.83;;
9106;SDS011;4589;48.690;8.952;2022-12-07T10:12:57;5.60;;;4.20;;
9106;SDS011;4589;48.690;8.952;2022-12-07T10:21:02;6.53;;;4.70;;
9106;SDS011;4589;48.690;8.952;2022-12-07T10:23:40;6.37;;;5.20;;
9106;SDS011;4589;48.690;8.952;2022-12-07T10:26:26;9.07;;;5.00;;
9106;SDS011;4589;48.690;8.952;2022-12-07T10:29:02;4.67;;;4.07;;
9106;SDS011;4589;48.690;8.952;2022-12-07T10:31:51;6.60;;;3.90;;
9106;SDS011;4589;48.690;8.952;2022-12-07T10:34:25;5.77;;;4.17;;
9106;SDS011;4589;48.690;8.952;2022-12-07T10:37:15;5.80;;;3.53;;
9106;SDS011;4589;48.690;8.952;2022-12-07T10:39:52;6.43;;;3.87;;
9106;SDS011;4589;48.690;8.952;2022-12-07T10:47:56;3.57;;;3.27;;
9106;SDS011;4589;48.690;8.952;2022-12-07T11:02:02;3.27;;;2.97;;
9106;SDS011;4589;48.690;8.952;2022-12-07T11:16:00;5.90;;;4.10;;
9106;SDS011;4589;48.690;8.952;2022-12-07T11:18:55;5.27;;;3.70;;
9106;SDS011;4589;48.690;8.952;2022-12-07T11:21:27;4.00;;;3.60;;
9106;SDS011;4589;48.690;8.952;2022-12-07T11:37:06;9.10;;;5.60;;
9106;SDS011;4589;48.690;8.952;2022-12-07T11:39:40;7.10;;;4.03;;
9106;SDS011;4589;48.690;8.952;2022-12-07T11:42:22;6.63;;;4.83;;
9106;SDS011;4589;48.690;8.952;2022-12-07T11:44:53;5.43;;;4.30;;
9106;SDS011;4589;48.690;8.952;2022-12-07T11:49:58;6.47;;;4.83;;
9106;SDS011;4589;48.690;8.952;2022-12-07T11:55:26;8.17;;;5.10;;
9106;SDS011;4589;48.690;8.952;2022-12-07T11:58:13;5.60;;;4.53;;
9106;SDS011;4589;48.690;8.952;2022-12-07T12:00:40;5.47;;;3.60;;
9106;SDS011;4589;48.690;8.952;2022-12-07T12:03:15;10.70;;;4.30;;
9106;SDS011;4589;48.690;8.952;2022-12-07T12:05:55;4.07;;;3.60;;
9106;SDS011;4589;48.690;8.952;2022-12-07T12:08:22;3.87;;;2.90;;
9106;SDS011;4589;48.690;8.952;2022-12-07T12:11:56;2.87;;;2.60;;
9106;SDS011;4589;48.690;8.952;2022-12-07T12:21:31;3.40;;;2.10;;
9106;SDS011;4589;48.690;8.952;2022-12-07T12:26:29;2.20;;;2.00;;
9106;SDS011;4589;48.690;8.952;2022-12-07T12:28:59;2.60;;;2.30;;
9106;SDS011;4589;48.690;8.952;2022-12-07T12:31:36;2.23;;;2.00;;
9106;SDS011;4589;48.690;8.952;2022-12-07T12:34:29;4.60;;;2.87;;
9106;SDS011;4589;48.690;8.952;2022-12-07T12:36:58;6.20;;;3.40;;
9106;SDS011;4589;48.690;8.952;2022-12-07T12:39:24;3.53;;;3.23;;
9106;SDS011;4589;48.690;8.952;2022-12-07T12:41:51;3.10;;;2.80;;
9106;SDS011;4589;48.690;8.952;2022-12-07T12:49:36;3.83;;;3.37;;
9106;SDS011;4589;48.690;8.952;2022-12-07T12:54:57;3.93;;;2.97;;
9106;SDS011;4589;48.690;8.952;2022-12-07T12:57:37;5.90;;;4.30;;
9106;SDS011;4589;48.690;8.952;2022-12-07T13:00:15;5.37;;;3.23;;
9106;SDS011;4589;48.690;8.952;2022-12-07T13:02:50;5.50;;;3.80;;
9106;SDS011;4589;48.690;8.952;2022-12-07T13:05:21;4.43;;;4.03;;
9106;SDS011;4589;48.690;8.952;2022-12-07T13:13:25;3.80;;;3.40;;
9106;SDS011;4589;48.690;8.952;2022-12-07T13:20:58;3.93;;;3.30;;
9106;SDS011;4589;48.690;8.952;2022-12-07T13:26:20;3.40;;;3.10;;
9106;SDS011;4589;48.690;8.952;2022-12-07T13:31:36;5.67;;;4.00;;
9106;SDS011;4589;48.690;8.952;2022-12-07T13:34:03;3.73;;;3.10;;
9106;SDS011;4589;48.690;8.952;2022-12-07T13:41:43;4.60;;;3.37;;
9106;SDS011;4589;48.690;8.952;2022-12-07T13:44:10;6.67;;;3.93;;
9106;SDS011;4589;48.690;8.952;2022-12-07T13:49:27;5.63;;;4.47;;
9106;SDS011;4589;48.690;8.952;2022-12-07T13:51:55;5.20;;;4.37;;
9106;SDS011;4589;48.690;8.952;2022-12-07T13:57:50;6.67;;;3.77;;
9106;SDS011;4589;48.690;8.952;2022-12-07T14:00:18;5.30;;;3.87;;
9106;SDS011;4589;48.690;8.952;2022-12-07T14:03:04;10.23;;;5.20;;
9106;SDS011;4589;48.690;8.952;2022-12-07T14:05:36;5.40;;;4.73;;
9106;SDS011;4589;48.690;8.952;2022-12-07T14:08:21;8.90;;;6.67;;
9106;SDS011;4589;48.690;8.952;2022-12-07T14:13:36;12.70;;;7.40;;
9106;SDS011;4589;48.690;8.952;2022-12-07T14:16:05;11.43;;;7.97;;
9106;SDS011;4589;48.690;8.952;2022-12-07T14:18:55;7.60;;;6.50;;
9106;SDS011;4589;48.690;8.952;2022-12-07T14:21:24;10.90;;;7.40;;
9106;SDS011;4589;48.690;8.952;2022-12-07T14:26:47;10.23;;;7.23;;
9106;SDS011;4589;48.690;8.952;2022-12-07T14:31:54;6.30;;;5.57;;
9106;SDS011;4589;48.690;8.952;2022-12-07T14:34:22;5.23;;;4.33;;
9106;SDS011;4589;48.690;8.952;2022-12-07T14:36:48;6.00;;;4.87;;
9106;SDS011;4589;48.690;8.952;2022-12-07T14:39:14;6.33;;;4.93;;
9106;SDS011;4589;48.690;8.952;2022-12-07T14:41:40;7.37;;;5.20;;
9106;SDS011;4589;48.690;8.952;2022-12-07T14:44:19;9.83;;;6.23;;
9106;SDS011;4589;48.690;8.952;2022-12-07T14:46:46;8.23;;;5.93;;
9106;SDS011;4589;48.690;8.952;2022-12-07T14:49:12;10.40;;;7.30;;
9106;SDS011;4589;48.690;8.952;2022-12-07T14:51:38;7.90;;;6.00;;
9106;SDS011;4589;48.690;8.952;2022-12-07T14:54:05;12.57;;;6.57;;
9106;SDS011;4589;48.690;8.952;2022-12-07T14:56:34;13.10;;;8.80;;
9106;SDS011;4589;48.690;8.952;2022-12-07T14:59:00;12.60;;;9.13;;
9106;SDS011;4589;48.690;8.952;2022-12-07T15:01:25;12.20;;;7.00;;
9106;SDS011;4589;48.690;8.952;2022-12-07T15:03:51;9.10;;;7.07;;
9106;SDS011;4589;48.690;8.952;2022-12-07T15:06:17;10.57;;;7.17;;
9106;SDS011;4589;48.690;8.952;2022-12-07T15:08:43;8.80;;;7.00;;
9106;SDS011;4589;48.690;8.952;2022-12-07T15:11:13;11.47;;;7.70;;
9106;SDS011;4589;48.690;8.952;2022-12-07T15:13:39;10.50;;;6.93;;
9106;SDS011;4589;48.690;8.952;2022-12-07T15:16:24;10.17;;;6.80;;
9106;SDS011;4589;48.690;8.952;2022-12-07T15:18:50;9.43;;;6.63;;
9106;SDS011;4589;48.690;8.952;2022-12-07T15:21:16;8.13;;;6.47;;
9106;SDS011;4589;48.690;8.952;2022-12-07T15:23:42;11.13;;;6.37;;
9106;SDS011;4589;48.690;8.952;2022-12-07T15:26:09;10.57;;;6.90;;
9106;SDS011;4589;48.690;8.952;2022-12-07T15:28:35;11.60;;;7.50;;
9106;SDS011;4589;48.690;8.952;2022-12-07T15:31:01;11.17;;;6.90;;
9106;SDS011;4589;48.690;8.952;2022-12-07T15:33:27;10.50;;;7.20;;
9106;SDS011;4589;48.690;8.952;2022-12-07T15:35:53;8.83;;;6.60;;
9106;SDS011;4589;48.690;8.952;2022-12-07T15:38:19;10.07;;;7.90;;
9106;SDS011;4589;48.690;8.952;2022-12-07T15:40:48;11.90;;;6.83;;
9106;SDS011;4589;48.690;8.952;2022-12-07T15:43:13;11.20;;;6.87;;
9106;SDS011;4589;48.690;8.952;2022-12-07T15:45:58;11.90;;;7.23;;
9106;SDS011;4589;48.690;8.952;2022-12-07T15:48:24;23.93;;;9.37;;
9106;SDS011;4589;48.690;8.952;2022-12-07T15:50:50;18.03;;;9.43;;
9106;SDS011;4589;48.690;8.952;2022-12-07T15:53:16;14.40;;;9.40;;
9106;SDS011;4589;48.690;8.952;2022-12-07T15:55:42;12.03;;;8.80;;
9106;SDS011;4589;48.690;8.952;2022-12-07T15:58:08;11.27;;;7.30;;
9106;SDS011;4589;48.690;8.952;2022-12-07T16:00:34;14.20;;;7.40;;
9106;SDS011;4589;48.690;8.952;2022-12-07T16:03:00;10.00;;;6.67;;
9106;SDS011;4589;48.690;8.952;2022-12-07T16:05:25;11.67;;;8.10;;
9106;SDS011;4589;48.690;8.952;2022-12-07T16:07:51;12.73;;;8.63;;
9106;SDS011;4589;48.690;8.952;2022-12-07T16:10:17;11.00;;;7.27;;
9106;SDS011;4589;48.690;8.952;2022-12-07T16:12:43;9.80;;;6.93;;
9106;SDS011;4589;48.690;8.952;2022-12-07T16:15:09;11.60;;;7.63;;
9106;SDS011;4589;48.690;8.952;2022-12-07T16:17:35;10.57;;;7.37;;
9106;SDS011;4589;48.690;8.952;2022-12-07T16:20:01;10.50;;;7.23;;
9106;SDS011;4589;48.690;8.952;2022-12-07T16:22:27;10.10;;;6.50;;
9106;SDS011;4589;48.690;8.952;2022-12-07T16:24:52;12.50;;;7.73;;
9106;SDS011;4589;48.690;8.952;2022-12-07T16:27:18;10.70;;;7.10;;
9106;SDS011;4589;48.690;8.952;2022-12-07T16:29:44;8.30;;;6.37;;
9106;SDS011;4589;48.690;8.952;2022-12-07T16:32:10;9.90;;;6.57;;
9106;SDS011;4589;48.690;8.952;2022-12-07T16:34:36;11.47;;;7.40;;
9106;SDS011;4589;48.690;8.952;2022-12-07T16:37:02;10.17;;;6.30;;
9106;SDS011;4589;48.690;8.952;2022-12-07T16:39:28;10.00;;;7.47;;
9106;SDS011;4589;48.690;8.952;2022-12-07T16:41:54;11.10;;;7.33;;
9106;SDS011;4589;48.690;8.952;2022-12-07T16:44:20;15.10;;;8.87;;
9106;SDS011;4589;48.690;8.952;2022-12-07T16:46:46;15.90;;;8.70;;
9106;SDS011;4589;48.690;8.952;2022-12-07T16:49:12;14.13;;;8.90;;
9106;SDS011;4589;48.690;8.952;2022-12-07T16:51:39;14.77;;;9.85;;
9106;SDS011;4589;48.690;8.952;2022-12-07T16:54:06;12.23;;;8.80;;
9106;SDS011;4589;48.690;8.952;2022-12-07T16:56:32;18.40;;;10.53;;
9106;SDS011;4589;48.690;8.952;2022-12-07T16:58:58;18.10;;;11.27;;
9106;SDS011;4589;48.690;8.952;2022-12-07T17:01:23;29.63;;;16.57;;
9106;SDS011;4589;48.690;8.952;2022-12-07T17:03:51;17.90;;;10.80;;
9106;SDS011;4589;48.690;8.952;2022-12-07T17:06:18;16.27;;;10.33;;
9106;SDS011;4589;48.690;8.952;2022-12-07T17:08:45;20.63;;;12.82;;
9106;SDS011;4589;48.690;8.952;2022-12-07T17:13:37;12.60;;;8.70;;
9106;SDS011;4589;48.690;8.952;2022-12-07T17:16:22;13.83;;;8.90;;
9106;SDS011;4589;48.690;8.952;2022-12-07T17:18:48;9.97;;;7.37;;
9106;SDS011;4589;48.690;8.952;2022-12-07T17:21:14;11.73;;;7.77;;
9106;SDS011;4589;48.690;8.952;2022-12-07T17:23:40;10.50;;;8.20;;
9106;SDS011;4589;48.690;8.952;2022-12-07T17:28:32;13.00;;;7.90;;
9106;SDS011;4589;48.690;8.952;2022-12-07T17:30:58;10.93;;;8.52;;
9106;SDS011;4589;48.690;8.952;2022-12-07T17:33:23;12.07;;;7.70;;
9106;SDS011;4589;48.690;8.952;2022-12-07T17:35:49;11.27;;;7.73;;
9106;SDS011;4589;48.690;8.952;2022-12-07T17:38:15;13.13;;;8.70;;
9106;SDS011;4589;48.690;8.952;2022-12-07T17:40:41;10.03;;;7.53;;
9106;SDS011;4589;48.690;8.952;2022-12-07T17:43:07;13.03;;;9.30;;